• Join FlightAware (Why Join?)
  • Login
  • US Flag 
10:28PM EST


 

Airport Tracker/Info


-or-


 

Live Flight TrackerFlight Track Log ✈ AVN11 ✈ 12-Jan-2014 ✈ YSSY / SYD - NVVV / VLI

Flight Track Log - Related Links

Times and Time Zones

All times are in EST time to prevent confusion due to time zone crossing. See the AVN11 flight status page for this flight to view local times or setup timezone preferences in your user account.

Time Position Orientation Groundspeed Altitude Reporting Facility
EST Latitude Longitude Course Direction KTS MPH feet Rate Location/Type
08:09PM -33.9463 151.1760 84° East 100 115  Level FlightAware ADS-B (YRPA)
08:09PM -33.9578 151.1789 168° South 160 184 900 Level FlightAware ADS-B (YRPA)
08:10PM -33.9728 151.1818 171° South 164 189 600 1,920 Climbing FlightAware ADS-B (YRPA)
08:10PM -33.9861 151.1805 185° South 172 198 1,200 1,440 Climbing FlightAware ADS-B
08:10PM -34.0027 151.1785 186° South 183 211 1,500 1,020 Climbing FlightAware ADS-B (YRPA)
08:11PM -34.0214 151.1767 185° South 207 238 1,900 1,500 Climbing FlightAware ADS-B (YWST)
08:11PM -34.0386 151.1788 174° South 223 257 2,500 2,040 Climbing FlightAware ADS-B (YWST)
08:11PM -34.0599 151.1855 165° South 229 264 3,200 2,580 Climbing FlightAware ADS-B
08:12PM -34.0796 151.1925 164° South 231 266 4,100 2,400 Climbing FlightAware ADS-B
08:12PM -34.1010 151.1999 164° South 243 280 4,800 1,680 Climbing FlightAware ADS-B
08:12PM -34.1196 151.2150 146° Southeast 267 307 5,200 1,620 Climbing FlightAware ADS-B
08:13PM -34.1402 151.2404 135° Southeast 278 320 6,000 2,400 Climbing FlightAware ADS-B (YWST)
08:13PM -34.1598 151.2641 135° Southeast 277 319 7,000 2,760 Climbing FlightAware ADS-B (YRPA)
08:13PM -34.1723 151.2891 121° Southeast 284 327 7,800 2,340 Climbing FlightAware ADS-B (YWST)
08:13PM -34.1734 151.2955 102° East 277 319 7,900 2,100 Climbing FlightAware ADS-B
08:14PM -34.1718 151.3198 86° East 299 344 8,500 2,160 Climbing FlightAware ADS-B (YWST)
08:14PM -34.1701 151.3253 70° East 301 346 8,600 2,280 Climbing FlightAware ADS-B
08:14PM -34.1544 151.3498 52° Northeast 310 357 9,300 2,100 Climbing FlightAware ADS-B (YRPA)
08:14PM -34.1411 151.3591 30° Northeast 315 362 9,700 1,620 Climbing FlightAware ADS-B
08:15PM -34.0966 151.3814 22° Northeast 337 388 10,500 1,260 Climbing FlightAware ADS-B (YWST)
08:15PM -34.0507 151.4016 20° North 368 423 11,000 1,320 Climbing FlightAware ADS-B (YRAY)
08:16PM -33.9942 151.4220 17° North 383 441 11,900 1,860 Climbing FlightAware ADS-B (YRAY)
08:16PM -33.9365 151.4436 17° North 392 451 13,100 2,160 Climbing FlightAware ADS-B (YRPA)
08:17PM -33.8636 151.4714 18° North 392 451 14,700 2,280 Climbing FlightAware ADS-B (YRPA)
08:18PM -33.8047 151.4940 18° North 407 468 16,000 2,040 Climbing FlightAware ADS-B
08:18PM -33.7362 151.5201 18° North 425 489 17,200 1,800 Climbing FlightAware ADS-B
08:19PM -33.6749 151.5434 17° North 425 489 18,100 1,860 Climbing FlightAware ADS-B (YRPA)
08:19PM -33.6194 151.5643 17° North 440 506 19,100 1,860 Climbing FlightAware ADS-B (YWST)
08:20PM -33.5527 151.5895 17° North 444 511 20,100 1,800 Climbing FlightAware ADS-B (YWST)
08:20PM -33.4874 151.6142 17° North 442 509 21,100 1,680 Climbing FlightAware ADS-B (YRPA)
08:21PM -33.4201 151.6396 17° North 457 526 22,000 1,560 Climbing FlightAware ADS-B (YRPA)
08:22PM -33.3401 151.6696 17° North 458 527 23,000 1,440 Climbing FlightAware ADS-B (YRPA)
08:22PM -33.2616 151.6991 17° North 472 543 23,900 1,440 Climbing FlightAware ADS-B (YRPA)
08:23PM -33.1796 151.7297 17° North 469 540 24,900 1,500 Climbing FlightAware ADS-B (YRPA)
08:24PM -33.1004 151.7601 17° North 476 548 25,900 1,380 Climbing Aus ATC (RADAR)
08:24PM -33.0888 151.7639 17° North 476 548 25,900 1,020 Level FlightAware ADS-B (YRPA)
08:24PM -33.0011 151.7968 17° North 492 566 26,700 1,380 Climbing FlightAware ADS-B (YRPA)
08:25PM -32.9222 151.8261 17° North 489 563 27,700 1,560 Climbing FlightAware ADS-B (YRPA)
08:26PM -32.8345 151.8585 17° North 488 562 28,700 1,380 Climbing FlightAware ADS-B (YRPA)
08:26PM -32.7655 151.8840 17° North 489 563 29,400 1,260 Climbing FlightAware ADS-B (YRPA)
08:27PM -32.6529 151.9261 17° North 489 563 30,500 1,080 Climbing Aus ATC (RADAR)
08:27PM -32.6338 151.9326 17° North 491 565 30,500 1,080 Level FlightAware ADS-B (YRPA)
08:28PM -32.5576 151.9608 17° North 489 563 31,300 1,380 Climbing FlightAware ADS-B (YRPA)
08:28PM -32.4905 151.9856 17° North 487 560 32,100 1,200 Climbing Aus ATC (RADAR)
08:28PM -32.4662 151.9945 17° North 486 559 32,200 1,020 Climbing FlightAware ADS-B (YRPA)
08:29PM -32.3913 152.0221 17° North 485 558 32,900 1,200 Climbing FlightAware ADS-B (YRPA)
08:29PM -32.3489 152.0376 17° North 476 548 33,300 1,140 Climbing FlightAware ADS-B (YRPA)
08:30PM -32.2691 152.0675 17° North 481 554 34,000 900 Climbing Aus ATC (RADAR)
08:30PM -32.2531 152.0729 17° North 476 548 34,000 660 Level FlightAware ADS-B (YRPA)
08:32PM -32.0514 152.1469 17° North 486 559 35,200 540 Climbing Aus ATC (RADAR)
08:32PM -31.9900 152.1700 18° North 488 562 35,100 -120 Descending Aus ATC (RADAR)
08:33PM -31.9141 152.1973 17° North 489 563 35,100  Level Aus ATC (RADAR)
08:33PM -31.8239 152.2301 17° North 487 560 35,100  Level Aus ATC (RADAR)
08:34PM -31.7479 152.2571 17° North 488 562 35,100  Level Aus ATC (RADAR)
08:35PM -31.6722 152.2850 17° North 486 559 35,100  Level Aus ATC (RADAR)
08:35PM -31.6002 152.3112 17° North 488 562 35,100  Level Aus ATC (RADAR)
08:36PM -31.5318 152.3357 17° North 484 557 35,100  Level Aus ATC (RADAR)
08:37PM -31.3953 152.3848 17° North 486 559 35,100  Level Aus ATC (RADAR)
08:37PM -31.3205 152.4118 17° North 482 555 35,100  Level Aus ATC (RADAR)
08:38PM -31.2517 152.4361 17° North 482 555 35,100  Level Aus ATC (RADAR)
08:38PM -31.1657 152.4677 17° North 484 557 35,100  Level Aus ATC (RADAR)
08:39PM -31.0943 152.4933 17° North 487 560 35,100  Level Aus ATC (RADAR)
08:40PM -31.0185 152.5204 17° North 489 563 35,100  Level Aus ATC (RADAR)
08:40PM -30.9493 152.5459 18° North 486 559 35,100  Level Aus ATC (RADAR)
08:41PM -30.8858 152.6017 37° Northeast 482 555 35,100  Level Aus ATC (RADAR)
08:42PM -30.7741 152.7442 48° Northeast 490 564 35,100  Level Aus ATC (RADAR)
08:42PM -30.7323 152.7957 47° Northeast 476 548 35,100  Level Aus ATC (RADAR)
08:43PM -30.6775 152.8631 47° Northeast 478 550 35,100  Level Aus ATC (RADAR)
08:44PM -30.6109 152.9461 47° Northeast 492 566 35,100  Level Aus ATC (RADAR)
08:44PM -30.5607 153.0068 46° Northeast 477 549 35,100  Level Aus ATC (RADAR)
08:45PM -30.5063 153.0737 47° Northeast 476 548 35,100  Level Aus ATC (RADAR)
08:45PM -30.4556 153.1368 47° Northeast 488 562 35,100  Level Aus ATC (RADAR)
08:46PM -30.4010 153.2036 47° Northeast 490 564 35,100  Level Aus ATC (RADAR)
08:47PM -30.3160 153.3088 47° Northeast 490 564 35,100  Level Aus ATC (RADAR)
08:47PM -30.2773 153.3560 47° Northeast 488 562 35,100  Level Aus ATC (RADAR)
08:48PM -30.2231 153.4223 47° Northeast 487 560 35,100  Level Aus ATC (RADAR)
08:48PM -30.1613 153.4976 46° Northeast 485 558 35,100  Level Aus ATC (RADAR)
08:49PM -30.1118 153.5574 46° Northeast 468 539 35,100  Level Aus ATC (RADAR)
08:50PM -30.0585 153.6224 47° Northeast 463 533 35,100  Level Aus ATC (RADAR)
08:50PM -30.0086 153.6835 47° Northeast 479 551 35,100  Level Aus ATC (RADAR)
08:51PM -29.9555 153.7477 46° Northeast 477 549 35,100  Level Aus ATC (RADAR)
08:52PM -29.8465 153.8782 46° Northeast 456 525 35,100  Level Aus ATC (RADAR)
08:52PM -29.8195 153.9113 47° Northeast 472 543 35,100  Level Aus ATC (RADAR)
08:53PM -29.7818 153.9566 46° Northeast 472 543 35,100  Level Aus ATC (RADAR)
08:53PM -29.7291 154.0202 46° Northeast 471 542 35,100  Level Aus ATC (RADAR)
08:54PM -29.6652 154.0949 45° Northeast 455 524 35,100  Level Aus ATC (RADAR)
08:55PM -29.6131 154.1585 47° Northeast 453 521 35,100  Level Aus ATC (RADAR)
08:55PM -29.5559 154.2278 46° Northeast 471 542 35,100  Level Aus ATC (RADAR)
08:56PM -29.5073 154.2843 45° Northeast 455 524 35,100  Level Aus ATC (RADAR)
08:56PM -29.4573 154.3453 47° Northeast 472 543 35,100  Level Aus ATC (RADAR)
08:57PM -29.3583 154.4628 46° Northeast 474 545 35,100  Level Aus ATC (RADAR)
08:58PM -29.3191 154.5086 46° Northeast 476 548 35,100  Level Aus ATC (RADAR)
08:58PM -29.2633 154.5751 46° Northeast 459 528 35,100  Level Aus ATC (RADAR)
08:59PM -29.2018 154.6480 46° Northeast 460 529 35,100  Level Aus ATC (RADAR)
09:00PM -29.1474 154.7105 45° Northeast 460 529 35,100  Level Aus ATC (RADAR)
09:00PM -29.0940 154.7737 46° Northeast 456 525 35,100  Level Aus ATC (RADAR)
09:01PM -29.0423 154.8374 47° Northeast 451 519 35,100  Level Aus ATC (RADAR)
09:01PM -28.9877 154.8989 45° Northeast 452 520 35,100  Level Aus ATC (RADAR)
09:03PM -28.8812 155.0232 46° Northeast 453 521 35,100  Level Aus ATC (RADAR)
09:03PM -28.8422 155.0679 45° Northeast 454 522 35,100  Level Aus ATC (RADAR)
09:04PM -28.7898 155.1316 47° Northeast 454 522 35,100  Level Aus ATC (RADAR)
09:04PM -28.7198 155.2120 45° Northeast 457 526 35,100  Level Aus ATC (RADAR)
09:05PM -28.6653 155.2749 45° Northeast 458 527 35,100  Level Aus ATC (RADAR)
09:05PM -28.6110 155.3371 45° Northeast 458 527 35,100 -120 Level Aus ATC (RADAR)
09:06PM -28.5486 155.4088 45° Northeast 459 528 35,000  Descending Aus ATC (RADAR)
09:07PM -28.4428 155.5332 46° Northeast 477 549 35,100 60 Climbing Aus ATC (RADAR)
09:08PM -28.4043 155.5781 46° Northeast 476 548 35,100  Level Aus ATC (RADAR)
09:08PM -28.3735 155.6139 46° Northeast 475 547 35,100 600 Level Aus ATC (RADAR)
09:09PM -28.3106 155.6861 45° Northeast 480 552 35,700 720 Climbing Aus ATC (RADAR)
09:09PM -28.2474 155.7583 45° Northeast 483 556 36,100 600 Climbing Aus ATC (RADAR)
09:10PM -28.1919 155.8220 45° Northeast 485 558 36,500 720 Climbing Aus ATC (RADAR)
09:10PM -28.1370 155.8852 45° Northeast 483 556 37,000 480 Climbing Aus ATC (RADAR)
09:11PM -28.0818 155.9482 45° Northeast 482 555 37,100 60 Climbing Aus ATC (RADAR)
09:12PM -28.0342 156.0022 45° Northeast 483 556 37,100  Level Aus ATC (RADAR)
09:13PM -27.9311 156.1194 45° Northeast 483 556 37,100  Level Aus ATC (RADAR)
09:13PM -27.8918 156.1640 45° Northeast 481 554 37,100  Level Aus ATC (RADAR)
09:14PM -27.8365 156.2267 45° Northeast 481 554 37,100  Level Aus ATC (RADAR)
09:14PM -27.7735 156.2980 45° Northeast 479 551 37,100  Level Aus ATC (RADAR)
09:15PM -27.7189 156.3603 45° Northeast 478 550 37,100  Level Aus ATC (RADAR)
09:15PM -27.6636 156.4225 45° Northeast 479 551 37,100  Level Aus ATC (RADAR)
09:16PM -27.6090 156.4845 45° Northeast 476 548 37,100  Level Aus ATC (RADAR)
09:17PM -27.5539 156.5465 45° Northeast 478 550 37,100  Level Aus ATC (RADAR)
09:18PM -27.4590 156.6531 45° Northeast 479 551 37,100  Level Aus ATC (RADAR)
09:18PM -27.4192 156.6977 45° Northeast 481 554 37,100  Level Aus ATC (RADAR)
09:19PM -27.3559 156.7687 45° Northeast 480 552 37,100  Level Aus ATC (RADAR)
09:19PM -27.3004 156.8311 45° Northeast 481 554 37,100 -120 Level Aus ATC (RADAR)
09:20PM -27.2438 156.8930 44° Northeast 484 557 37,000 -120 Descending Aus ATC (RADAR)
09:20PM -27.1890 156.9561 46° Northeast 482 555 37,000  Level Aus ATC (RADAR)
09:21PM -27.1416 157.0097 45° Northeast 481 554 37,000  Level Aus ATC (RADAR)
09:22PM -27.0856 157.0722 45° Northeast 482 555 37,000  Level Aus ATC (RADAR)
09:23PM -26.9649 157.2060 45° Northeast 485 558 37,000  Level Aus ATC (RADAR)
09:23PM -26.9240 157.2506 44° Northeast 486 559 37,000  Level Aus ATC (RADAR)
09:24PM -26.8674 157.3130 45° Northeast 487 560 37,000  Level Aus ATC (RADAR)
09:25PM -26.7942 157.3938 45° Northeast 489 563 37,000  Level Aus ATC (RADAR)
09:25PM -26.7371 157.4571 45° Northeast 491 565 37,000  Level Aus ATC (RADAR)
09:26PM -26.6791 157.5206 44° Northeast 496 571 37,000  Level Aus ATC (RADAR)
09:26PM -26.6224 157.5846 45° Northeast 494 568 37,000  Level Aus ATC (RADAR)
09:27PM -26.5635 157.6485 44° Northeast 499 574 37,000  Level Aus ATC (RADAR)
09:28PM -26.4472 157.7776 45° Northeast 502 578 37,000  Level Aus ATC (RADAR)
09:28PM -26.4132 157.8141 44° Northeast 504 580 37,000  Level Aus ATC (RADAR)
09:29PM -26.3469 157.8881 45° Northeast 503 579 37,000  Level Aus ATC (RADAR)
09:30PM -26.2774 157.9604 43° Northeast 504 580 37,000  Level Aus ATC (RADAR)
09:30PM -26.2282 158.0144 45° Northeast 502 578 37,000  Level Aus ATC (RADAR)
09:33PM -25.9675 158.2970 50° Northeast 37,000  Level Aus ATC (Calculated)
09:35PM -25.8087 158.5096 50° Northeast  Level Estimated
09:36PM -25.7257 158.6203 50° Northeast  Level Estimated
09:36PM -25.6852 158.6008 50° Northeast 37,000  Level Aus ATC (Calculated)
09:38PM -25.5266 158.8132 50° Northeast  Level Estimated
09:38PM -25.4864 158.8136 50° Northeast 37,000  Level Aus ATC (Calculated)
09:40PM -25.3225 159.0331 50° Northeast  Level Estimated
09:41PM -25.2397 159.1436 50° Northeast  Level Estimated
09:42PM -25.1569 159.2539 50° Northeast  Level Estimated
09:43PM -25.0739 159.3640 50° Northeast  Level Estimated
09:44PM -24.9909 159.4740 50° Northeast  Level Estimated
09:45PM -24.9078 159.5839 50° Northeast  Level Estimated
09:46PM -24.8246 159.6936 50° Northeast  Level Estimated
09:47PM -24.7414 159.8031 50° Northeast  Level Estimated
09:48PM -24.6580 159.9125 50° Northeast  Level Estimated
09:49PM -24.5746 160.0218 50° Northeast  Level Estimated
09:50PM -24.4911 160.1309 50° Northeast  Level Estimated
09:51PM -24.4075 160.2399 50° Northeast  Level Estimated
09:52PM -24.3239 160.3487 50° Northeast  Level Estimated
09:53PM -24.2401 160.4574 50° Northeast  Level Estimated
09:53PM -23.8963 160.4798 51° Northeast 37,000  Level Aus ATC (Calculated)
09:55PM -23.7616 160.6630 51° Northeast  Level Estimated
09:56PM -23.6807 160.7727 51° Northeast  Level Estimated
09:57PM -23.5997 160.8823 51° Northeast  Level Estimated
09:58PM -23.5186 160.9917 51° Northeast  Level Estimated
09:59PM -23.4374 161.1010 51° Northeast  Level Estimated
10:00PM -23.3562 161.2102 51° Northeast  Level Estimated
10:01PM -23.2749 161.3192 51° Northeast  Level Estimated
10:01PM -23.1145 161.2773 52° Northeast 37,000  Level Aus ATC (Calculated)
10:02PM -23.0349 161.3876 52° Northeast  Level Estimated
10:03PM -22.9552 161.4978 52° Northeast  Level Estimated
10:04PM -22.8754 161.6078 52° Northeast  Level Estimated
10:04PM -22.7908 161.6035 52° Northeast 37,000  Level Aus ATC (Calculated)
10:05PM -22.7118 161.7141 52° Northeast  Level Estimated
10:06PM -22.6328 161.8246 52° Northeast  Level Estimated
10:07PM -22.5536 161.9349 52° Northeast  Level Estimated
10:08PM -22.4744 162.0451 52° Northeast  Level Estimated
10:09PM -22.3952 162.1552 52° Northeast  Level Estimated
10:10PM -22.3158 162.2651 52° Northeast  Level Estimated
10:11PM -22.2364 162.3750 52° Northeast  Level Estimated
10:12PM -22.1569 162.4847 52° Northeast  Level Estimated
10:13PM -22.0773 162.5943 52° Northeast  Level Estimated
10:14PM -21.9977 162.7037 52° Northeast  Level Estimated
10:14PM -21.7784 162.6100 54° Northeast 37,000  Level Aus ATC (Calculated)
10:15PM -21.7021 162.7220 54° Northeast  Level Estimated
10:16PM -21.6258 162.8339 54° Northeast  Level Estimated
10:17PM -21.5495 162.9457 54° Northeast  Level Estimated
10:18PM -21.4730 163.0574 54° Northeast  Level Estimated
10:19PM -21.3965 163.1689 54° Northeast  Level Estimated
10:20PM -21.3199 163.2803 54° Northeast  Level Estimated
10:21PM -21.2432 163.3917 54° Northeast  Level Estimated
10:22PM -21.1665 163.5029 54° Northeast  Level Estimated
10:23PM -21.0897 163.6139 53° Northeast  Level Estimated
10:24PM -21.0128 163.7249 53° Northeast  Level Estimated
10:25PM -20.9358 163.8358 53° Northeast  Level Estimated
10:26PM -20.8588 163.9465 53° Northeast  Level Estimated
10:27PM -20.7817 164.0571 53° Northeast  Level Estimated
10:28PM -20.7045 164.1676 53° Northeast  Level Estimated
10:29PM -20.6273 164.2780 53° Northeast  Level Estimated
10:30PM -20.5500 164.3883 53° Northeast  Level Estimated
10:31PM -20.4726 164.4985 53° Northeast  Level Estimated
10:32PM -20.3951 164.6086 53° Northeast  Level Estimated
10:33PM -20.3176 164.7185 53° Northeast  Level Estimated
10:34PM -20.2400 164.8284 53° Northeast  Level Estimated
10:35PM -20.1624 164.9381 53° Northeast  Level Estimated
10:36PM -20.0847 165.0477 53° Northeast  Level Estimated
10:37PM -20.0069 165.1573 53° Northeast  Level Estimated
10:38PM -19.9290 165.2667 53° Northeast  Level Estimated
10:39PM -19.8511 165.3760 53° Northeast  Level Estimated
10:40PM -19.7731 165.4852 53° Northeast  Level Estimated
10:41PM -19.6950 165.5943 53° Northeast  Level Estimated
10:42PM -19.6169 165.7032 53° Northeast  Level Estimated
10:43PM -19.5387 165.8121 53° Northeast  Level Estimated
10:44PM -19.4605 165.9209 53° Northeast  Level Estimated
10:45PM -19.3821 166.0295 53° Northeast  Level Estimated
10:46PM -19.3038 166.1381 53° Northeast  Level Estimated
10:47PM -19.2253 166.2466 53° Northeast  Level Estimated
10:48PM -19.1468 166.3549 53° Northeast  Level Estimated
10:49PM -19.0682 166.4632 52° Northeast  Level Estimated
10:50PM -18.9896 166.5713 52° Northeast  Level Estimated
10:51PM -18.9109 166.6793 52° Northeast  Level Estimated
10:52PM -18.8321 166.7873 52° Northeast  Level Estimated
10:53PM -18.7533 166.8951 52° Northeast  Level Estimated
10:54PM -18.6744 167.0029 52° Northeast  Level Estimated
10:55PM -18.5954 167.1105 52° Northeast  Level Estimated
10:56PM -18.5164 167.2180 52° Northeast  Level Estimated
10:57PM -18.4374 167.3255 52° Northeast  Level Estimated
10:58PM -18.3582 167.4328 52° Northeast  Level Estimated
10:59PM -18.2791 167.5401 52° Northeast  Level Estimated
11:00PM -18.1998 167.6472 52° Northeast  Level Estimated
11:01PM -18.1205 167.7543 52° Northeast  Level Estimated
11:02PM -18.0411 167.8612 52° Northeast  Level Estimated
11:03PM -17.9617 167.9681 52° Northeast  Level Estimated
11:04PM -17.8822 168.0748 52° Northeast  Level Estimated
11:05PM -17.8027 168.1815 52° Northeast  Level Estimated
11:06PM -17.7231 168.2881 52° Northeast  Level Estimated
11:07PM -17.6993 168.3198 52° Northeast  Level Estimated
11:08PM -17.6993 168.3198 143° Southeast  Level Estimated
11:09PM -17.6993 168.3198 37° Northeast  Level Estimated
11:10PM -17.6993 168.3198 143° Southeast  Level Estimated
11:11PM -17.6993 168.3198 37° Northeast  Level Estimated
11:12PM -17.6993 168.3198 143° Southeast  Level Estimated
11:13PM -17.6993 168.3198 37° Northeast  Level Estimated
11:14PM -17.6993 168.3198 143° Southeast  Level Estimated
11:15PM -17.6993 168.3198 37° Northeast  Level Estimated
11:16PM -17.6993 168.3198 143° Southeast  Level Estimated
11:17PM -17.6993 168.3198 37° Northeast  Level Estimated
11:18PM -17.6993 168.3198 143° Southeast  Level Estimated
11:19PM -17.6993 168.3198 37° Northeast  Level Estimated
11:20PM -17.6993 168.3198 143° Southeast  Level Estimated
11:21PM -17.6993 168.3198 37° Northeast  Level Estimated
11:22PM -17.6993 168.3198 143° Southeast  Level Estimated
11:23PM -17.6993 168.3198 37° Northeast  Level Estimated
11:24PM -17.6993 168.3198 143° Southeast  Level Estimated